This is the latest recevied weather packets stored in our database for station/object PY2VE-13. If no packets are shown the sender has not sent any weather packets the latest 10 day(s).
| Time | Temp. | Humidity | Pressure | Rain* | Wind** | Luminosity | Snow |
|---|---|---|---|---|---|---|---|
| 1777799927 | 23.33° C | 51% | 1023.3 hPa | - | - | - | - |
| 1777799027 | 23.33° C | 52% | 1023.4 hPa | - | - | - | - |
| 1777798127 | 23.33° C | 51% | 1023.3 hPa | - | - | - | - |
| 1777797227 | 23.33° C | 51% | 1023 hPa | - | - | - | - |
| 1777796327 | 23.33° C | 52% | 1023 hPa | - | - | - | - |
| 1777795427 | 23.33° C | 52% | 1023 hPa | - | - | - | - |
| 1777794530 | 23.33° C | 53% | 1022.8 hPa | - | - | - | - |
| 1777793627 | 22.78° C | 53% | 1022.8 hPa | - | - | - | - |
| 1777792727 | 22.78° C | 53% | 1022.7 hPa | - | - | - | - |
| 1777791827 | 23.33° C | 53% | 1022.9 hPa | - | - | - | - |
| 1777790927 | 23.33° C | 54% | 1022.6 hPa | - | - | - | - |
| 1777790027 | 23.33° C | 54% | 1022.4 hPa | - | - | - | - |
| 1777789127 | 22.22° C | 58% | 1022.9 hPa | - | - | - | - |
| 1777788227 | 20.56° C | 62% | 1023.6 hPa | - | - | - | - |
| 1777787327 | 20.56° C | 60% | 1023.5 hPa | - | - | - | - |
| 1777786427 | 23.89° C | 49% | 1021 hPa | - | - | - | - |
| 1777785527 | 23.33° C | 51% | 1020.7 hPa | - | - | - | - |
| 1777784627 | 23.33° C | 52% | 1021.3 hPa | - | - | - | - |
| 1777783727 | 22.78° C | 52% | 1021.8 hPa | - | - | - | - |
| 1777782827 | 23.33° C | 50% | 1022.1 hPa | - | - | - | - |
| 1777781927 | 23.89° C | 51% | 1022.7 hPa | - | - | - | - |
| 1777781027 | 24.44° C | 48% | 1022.7 hPa | - | - | - | - |
| 1777780127 | 24.44° C | 49% | 1023.2 hPa | - | - | - | - |
| 1777779227 | 23.89° C | 49% | 1023.8 hPa | - | - | - | - |
| 1777778327 | 24.44° C | 48% | 1023.9 hPa | - | - | - | - |
* Rain since midnight (hover to see other rain measurements)
** Current wind speed in m/s (hover to see current wind gust speed)